sensor_id;sensor_type;location;lat;lon;timestamp;P1;durP1;ratioP1;P2;durP2;ratioP2
60919;SDS011;59039;52.108;19.942;2023-04-24T00:02:19;33.60;;;19.80;;
60919;SDS011;59039;52.108;19.942;2023-04-24T00:04:53;31.70;;;19.10;;
60919;SDS011;59039;52.108;19.942;2023-04-24T00:10:32;34.40;;;20.30;;
60919;SDS011;59039;52.108;19.942;2023-04-24T00:12:57;34.60;;;20.40;;
60919;SDS011;59039;52.108;19.942;2023-04-24T00:15:44;35.60;;;22.30;;
60919;SDS011;59039;52.108;19.942;2023-04-24T00:18:11;35.40;;;21.00;;
60919;SDS011;59039;52.108;19.942;2023-04-24T00:23:48;38.00;;;23.00;;
60919;SDS011;59039;52.108;19.942;2023-04-24T00:34:31;40.30;;;27.90;;
60919;SDS011;59039;52.108;19.942;2023-04-24T00:39:59;37.80;;;24.10;;
60919;SDS011;59039;52.108;19.942;2023-04-24T00:48:42;35.90;;;21.80;;
60919;SDS011;59039;52.108;19.942;2023-04-24T00:56:58;28.20;;;19.20;;
60919;SDS011;59039;52.108;19.942;2023-04-24T00:59:24;30.70;;;19.00;;
60919;SDS011;59039;52.108;19.942;2023-04-24T01:07:57;35.20;;;21.10;;
60919;SDS011;59039;52.108;19.942;2023-04-24T01:16:00;25.50;;;16.80;;
60919;SDS011;59039;52.108;19.942;2023-04-24T01:18:46;29.90;;;18.60;;
60919;SDS011;59039;52.108;19.942;2023-04-24T01:27:48;27.40;;;18.60;;
60919;SDS011;59039;52.108;19.942;2023-04-24T01:33:10;28.70;;;19.00;;
60919;SDS011;59039;52.108;19.942;2023-04-24T01:35:38;33.90;;;22.10;;
60919;SDS011;59039;52.108;19.942;2023-04-24T01:41:08;35.70;;;20.60;;
60919;SDS011;59039;52.108;19.942;2023-04-24T01:43:56;29.20;;;18.40;;
60919;SDS011;59039;52.108;19.942;2023-04-24T01:46:33;34.90;;;20.10;;
60919;SDS011;59039;52.108;19.942;2023-04-24T01:49:09;34.60;;;20.80;;
60919;SDS011;59039;52.108;19.942;2023-04-24T01:55:00;32.90;;;19.30;;
60919;SDS011;59039;52.108;19.942;2023-04-24T01:57:34;33.70;;;20.60;;
60919;SDS011;59039;52.108;19.942;2023-04-24T02:00:44;37.20;;;19.10;;
60919;SDS011;59039;52.108;19.942;2023-04-24T02:06:07;31.90;;;19.90;;
60919;SDS011;59039;52.108;19.942;2023-04-24T02:17:43;33.00;;;21.50;;
60919;SDS011;59039;52.108;19.942;2023-04-24T02:23:29;38.70;;;23.00;;
60919;SDS011;59039;52.108;19.942;2023-04-24T02:26:20;38.50;;;23.60;;
60919;SDS011;59039;52.108;19.942;2023-04-24T02:31:34;42.20;;;23.90;;
60919;SDS011;59039;52.108;19.942;2023-04-24T02:34:05;42.70;;;22.80;;
60919;SDS011;59039;52.108;19.942;2023-04-24T02:36:45;40.80;;;24.90;;
60919;SDS011;59039;52.108;19.942;2023-04-24T02:39:16;45.40;;;25.80;;
60919;SDS011;59039;52.108;19.942;2023-04-24T02:42:02;40.20;;;24.00;;
60919;SDS011;59039;52.108;19.942;2023-04-24T02:44:39;43.60;;;25.60;;
60919;SDS011;59039;52.108;19.942;2023-04-24T02:50:21;50.10;;;25.90;;
60919;SDS011;59039;52.108;19.942;2023-04-24T02:53:22;49.50;;;27.80;;
60919;SDS011;59039;52.108;19.942;2023-04-24T03:04:15;42.20;;;26.50;;
60919;SDS011;59039;52.108;19.942;2023-04-24T03:09:59;44.00;;;25.50;;
60919;SDS011;59039;52.108;19.942;2023-04-24T03:12:30;42.00;;;27.00;;
60919;SDS011;59039;52.108;19.942;2023-04-24T03:14:58;43.80;;;26.60;;
60919;SDS011;59039;52.108;19.942;2023-04-24T03:32:14;49.30;;;26.60;;
60919;SDS011;59039;52.108;19.942;2023-04-24T03:35:02;45.90;;;25.40;;
60919;SDS011;59039;52.108;19.942;2023-04-24T03:59:09;46.60;;;25.10;;
60919;SDS011;59039;52.108;19.942;2023-04-24T04:08:02;40.80;;;26.20;;
60919;SDS011;59039;52.108;19.942;2023-04-24T04:10:39;41.10;;;25.50;;
60919;SDS011;59039;52.108;19.942;2023-04-24T04:16:22;44.40;;;26.30;;
60919;SDS011;59039;52.108;19.942;2023-04-24T04:22:16;43.90;;;25.10;;
60919;SDS011;59039;52.108;19.942;2023-04-24T04:25:02;41.50;;;23.30;;
60919;SDS011;59039;52.108;19.942;2023-04-24T04:27:51;41.00;;;23.40;;
60919;SDS011;59039;52.108;19.942;2023-04-24T04:36:37;41.90;;;24.90;;
60919;SDS011;59039;52.108;19.942;2023-04-24T04:45:05;43.80;;;23.90;;
60919;SDS011;59039;52.108;19.942;2023-04-24T04:57:20;47.20;;;25.30;;
60919;SDS011;59039;52.108;19.942;2023-04-24T05:00:06;40.60;;;25.00;;
60919;SDS011;59039;52.108;19.942;2023-04-24T05:02:30;43.40;;;24.70;;
60919;SDS011;59039;52.108;19.942;2023-04-24T05:05:06;44.60;;;26.10;;
60919;SDS011;59039;52.108;19.942;2023-04-24T05:13:41;39.60;;;23.50;;
60919;SDS011;59039;52.108;19.942;2023-04-24T05:16:27;39.10;;;24.30;;
60919;SDS011;59039;52.108;19.942;2023-04-24T05:18:55;37.40;;;23.70;;
60919;SDS011;59039;52.108;19.942;2023-04-24T05:24:46;35.50;;;22.90;;
60919;SDS011;59039;52.108;19.942;2023-04-24T05:27:24;46.00;;;26.80;;
60919;SDS011;59039;52.108;19.942;2023-04-24T05:30:10;42.90;;;26.40;;
60919;SDS011;59039;52.108;19.942;2023-04-24T05:35:54;40.30;;;24.00;;
60919;SDS011;59039;52.108;19.942;2023-04-24T05:38:40;44.30;;;25.20;;
60919;SDS011;59039;52.108;19.942;2023-04-24T05:44:22;38.20;;;22.50;;
60919;SDS011;59039;52.108;19.942;2023-04-24T05:46:53;37.50;;;22.80;;
60919;SDS011;59039;52.108;19.942;2023-04-24T05:49:58;33.00;;;21.30;;
60919;SDS011;59039;52.108;19.942;2023-04-24T05:52:24;32.20;;;20.00;;
60919;SDS011;59039;52.108;19.942;2023-04-24T06:00:27;34.60;;;19.10;;
60919;SDS011;59039;52.108;19.942;2023-04-24T06:06:10;27.80;;;19.60;;
60919;SDS011;59039;52.108;19.942;2023-04-24T06:11:29;31.30;;;22.10;;
60919;SDS011;59039;52.108;19.942;2023-04-24T06:14:15;29.20;;;20.40;;
60919;SDS011;59039;52.108;19.942;2023-04-24T06:25:31;37.90;;;21.30;;
60919;SDS011;59039;52.108;19.942;2023-04-24T06:31:13;31.30;;;20.60;;
60919;SDS011;59039;52.108;19.942;2023-04-24T06:34:22;29.20;;;18.50;;
60919;SDS011;59039;52.108;19.942;2023-04-24T06:37:07;30.70;;;21.00;;
60919;SDS011;59039;52.108;19.942;2023-04-24T06:39:43;29.40;;;19.30;;
60919;SDS011;59039;52.108;19.942;2023-04-24T06:45:16;31.00;;;19.30;;
60919;SDS011;59039;52.108;19.942;2023-04-24T06:47:47;30.00;;;21.20;;
60919;SDS011;59039;52.108;19.942;2023-04-24T06:50:23;62.40;;;30.70;;
60919;SDS011;59039;52.108;19.942;2023-04-24T06:52:48;59.50;;;32.40;;
60919;SDS011;59039;52.108;19.942;2023-04-24T06:58:29;44.40;;;25.80;;
60919;SDS011;59039;52.108;19.942;2023-04-24T07:01:29;29.50;;;19.30;;
60919;SDS011;59039;52.108;19.942;2023-04-24T07:06:48;32.00;;;18.80;;
60919;SDS011;59039;52.108;19.942;2023-04-24T07:09:48;25.90;;;18.60;;
60919;SDS011;59039;52.108;19.942;2023-04-24T07:12:28;26.20;;;16.90;;
60919;SDS011;59039;52.108;19.942;2023-04-24T07:15:13;29.60;;;19.80;;
60919;SDS011;59039;52.108;19.942;2023-04-24T07:18:01;37.40;;;20.70;;
60919;SDS011;59039;52.108;19.942;2023-04-24T07:20:37;28.80;;;18.80;;
60919;SDS011;59039;52.108;19.942;2023-04-24T07:23:05;33.30;;;20.10;;
60919;SDS011;59039;52.108;19.942;2023-04-24T07:28:29;33.40;;;20.90;;
60919;SDS011;59039;52.108;19.942;2023-04-24T07:31:04;35.20;;;20.80;;
60919;SDS011;59039;52.108;19.942;2023-04-24T07:33:29;35.50;;;19.70;;
60919;SDS011;59039;52.108;19.942;2023-04-24T07:35:55;32.50;;;18.70;;
60919;SDS011;59039;52.108;19.942;2023-04-24T07:41:32;32.00;;;16.90;;
60919;SDS011;59039;52.108;19.942;2023-04-24T07:44:21;23.70;;;16.90;;
60919;SDS011;59039;52.108;19.942;2023-04-24T07:47:07;28.80;;;19.30;;
60919;SDS011;59039;52.108;19.942;2023-04-24T07:49:37;26.30;;;18.00;;
60919;SDS011;59039;52.108;19.942;2023-04-24T07:52:06;28.60;;;19.00;;
60919;SDS011;59039;52.108;19.942;2023-04-24T07:54:57;30.40;;;18.80;;
60919;SDS011;59039;52.108;19.942;2023-04-24T07:57:22;27.00;;;18.40;;
60919;SDS011;59039;52.108;19.942;2023-04-24T08:00:11;21.90;;;15.80;;
60919;SDS011;59039;52.108;19.942;2023-04-24T08:02:39;19.70;;;14.30;;
60919;SDS011;59039;52.108;19.942;2023-04-24T08:05:06;20.20;;;15.00;;
60919;SDS011;59039;52.108;19.942;2023-04-24T08:07:43;19.10;;;13.30;;
60919;SDS011;59039;52.108;19.942;2023-04-24T08:10:17;19.10;;;12.70;;
60919;SDS011;59039;52.108;19.942;2023-04-24T08:13:04;19.70;;;13.70;;
60919;SDS011;59039;52.108;19.942;2023-04-24T08:23:38;18.20;;;11.60;;
60919;SDS011;59039;52.108;19.942;2023-04-24T08:26:16;19.70;;;12.70;;
60919;SDS011;59039;52.108;19.942;2023-04-24T08:29:04;20.80;;;11.90;;
60919;SDS011;59039;52.108;19.942;2023-04-24T08:31:30;18.50;;;11.90;;
60919;SDS011;59039;52.108;19.942;2023-04-24T08:33:59;15.30;;;10.90;;
60919;SDS011;59039;52.108;19.942;2023-04-24T08:36:33;12.80;;;10.30;;
60919;SDS011;59039;52.108;19.942;2023-04-24T08:39:22;17.60;;;11.40;;
60919;SDS011;59039;52.108;19.942;2023-04-24T08:41:48;14.80;;;10.20;;
60919;SDS011;59039;52.108;19.942;2023-04-24T08:44:18;18.20;;;10.70;;
60919;SDS011;59039;52.108;19.942;2023-04-24T08:47:16;17.40;;;11.70;;
60919;SDS011;59039;52.108;19.942;2023-04-24T08:52:31;15.30;;;9.50;;
60919;SDS011;59039;52.108;19.942;2023-04-24T08:55:20;14.60;;;10.10;;
60919;SDS011;59039;52.108;19.942;2023-04-24T09:00:28;14.60;;;9.40;;
60919;SDS011;59039;52.108;19.942;2023-04-24T09:03:00;14.40;;;10.00;;
60919;SDS011;59039;52.108;19.942;2023-04-24T09:10:52;12.10;;;8.80;;
60919;SDS011;59039;52.108;19.942;2023-04-24T09:13:59;13.60;;;9.10;;
60919;SDS011;59039;52.108;19.942;2023-04-24T09:19:33;10.10;;;8.40;;
60919;SDS011;59039;52.108;19.942;2023-04-24T09:22:04;12.60;;;8.40;;
60919;SDS011;59039;52.108;19.942;2023-04-24T09:25:11;13.70;;;8.70;;
60919;SDS011;59039;52.108;19.942;2023-04-24T09:27:59;13.70;;;7.90;;
60919;SDS011;59039;52.108;19.942;2023-04-24T09:30:38;10.30;;;7.00;;
60919;SDS011;59039;52.108;19.942;2023-04-24T09:33:13;10.80;;;7.50;;
60919;SDS011;59039;52.108;19.942;2023-04-24T09:35:59;9.60;;;7.20;;
60919;SDS011;59039;52.108;19.942;2023-04-24T09:38:39;10.10;;;7.40;;
60919;SDS011;59039;52.108;19.942;2023-04-24T09:41:13;12.00;;;8.40;;
60919;SDS011;59039;52.108;19.942;2023-04-24T09:43:48;9.80;;;7.40;;
60919;SDS011;59039;52.108;19.942;2023-04-24T09:46:33;10.30;;;7.50;;
60919;SDS011;59039;52.108;19.942;2023-04-24T09:49:08;9.40;;;7.30;;
60919;SDS011;59039;52.108;19.942;2023-04-24T09:52:04;9.30;;;7.00;;
60919;SDS011;59039;52.108;19.942;2023-04-24T09:54:40;11.40;;;7.60;;
60919;SDS011;59039;52.108;19.942;2023-04-24T09:57:08;11.30;;;7.70;;
60919;SDS011;59039;52.108;19.942;2023-04-24T09:59:34;10.60;;;7.70;;
60919;SDS011;59039;52.108;19.942;2023-04-24T10:02:16;14.10;;;7.40;;
60919;SDS011;59039;52.108;19.942;2023-04-24T10:04:56;11.20;;;7.20;;
60919;SDS011;59039;52.108;19.942;2023-04-24T10:07:27;13.60;;;8.20;;
60919;SDS011;59039;52.108;19.942;2023-04-24T10:12:59;14.10;;;7.80;;
60919;SDS011;59039;52.108;19.942;2023-04-24T10:15:30;15.70;;;7.80;;
60919;SDS011;59039;52.108;19.942;2023-04-24T10:17:57;14.40;;;7.80;;
60919;SDS011;59039;52.108;19.942;2023-04-24T10:20:24;21.00;;;7.90;;
60919;SDS011;59039;52.108;19.942;2023-04-24T10:22:52;31.60;;;8.90;;
60919;SDS011;59039;52.108;19.942;2023-04-24T10:25:36;28.40;;;8.90;;
60919;SDS011;59039;52.108;19.942;2023-04-24T10:28:11;14.70;;;7.60;;
60919;SDS011;59039;52.108;19.942;2023-04-24T10:30:39;13.00;;;7.80;;
60919;SDS011;59039;52.108;19.942;2023-04-24T10:33:13;9.70;;;7.00;;
60919;SDS011;59039;52.108;19.942;2023-04-24T10:35:49;12.30;;;7.30;;
60919;SDS011;59039;52.108;19.942;2023-04-24T10:38:36;16.60;;;8.20;;
60919;SDS011;59039;52.108;19.942;2023-04-24T10:41:22;15.70;;;7.90;;
60919;SDS011;59039;52.108;19.942;2023-04-24T10:44:11;28.30;;;9.10;;
60919;SDS011;59039;52.108;19.942;2023-04-24T10:49:49;11.50;;;7.50;;
60919;SDS011;59039;52.108;19.942;2023-04-24T10:52:18;11.40;;;7.50;;
60919;SDS011;59039;52.108;19.942;2023-04-24T10:54:47;16.20;;;8.40;;
60919;SDS011;59039;52.108;19.942;2023-04-24T10:57:35;13.30;;;6.70;;
60919;SDS011;59039;52.108;19.942;2023-04-24T11:00:10;8.70;;;7.30;;
60919;SDS011;59039;52.108;19.942;2023-04-24T11:02:39;14.30;;;8.10;;
60919;SDS011;59039;52.108;19.942;2023-04-24T11:05:07;13.80;;;6.70;;
60919;SDS011;59039;52.108;19.942;2023-04-24T11:16:54;23.70;;;8.40;;
60919;SDS011;59039;52.108;19.942;2023-04-24T11:19:25;11.80;;;8.00;;
60919;SDS011;59039;52.108;19.942;2023-04-24T11:21:58;9.90;;;7.90;;
60919;SDS011;59039;52.108;19.942;2023-04-24T11:24:58;9.90;;;7.00;;
60919;SDS011;59039;52.108;19.942;2023-04-24T11:27:25;12.60;;;7.50;;
60919;SDS011;59039;52.108;19.942;2023-04-24T11:35:34;12.10;;;7.60;;
60919;SDS011;59039;52.108;19.942;2023-04-24T11:40:39;10.90;;;6.90;;
60919;SDS011;59039;52.108;19.942;2023-04-24T11:43:25;10.70;;;7.30;;
60919;SDS011;59039;52.108;19.942;2023-04-24T11:46:00;14.60;;;7.60;;
60919;SDS011;59039;52.108;19.942;2023-04-24T11:48:37;10.80;;;7.60;;
60919;SDS011;59039;52.108;19.942;2023-04-24T11:51:02;9.60;;;7.70;;
60919;SDS011;59039;52.108;19.942;2023-04-24T11:53:37;10.10;;;7.60;;
60919;SDS011;59039;52.108;19.942;2023-04-24T11:56:03;12.60;;;7.90;;
60919;SDS011;59039;52.108;19.942;2023-04-24T11:58:34;9.50;;;7.20;;
60919;SDS011;59039;52.108;19.942;2023-04-24T12:01:18;11.10;;;7.30;;
60919;SDS011;59039;52.108;19.942;2023-04-24T12:03:59;15.90;;;7.60;;
60919;SDS011;59039;52.108;19.942;2023-04-24T12:06:31;12.10;;;7.20;;
60919;SDS011;59039;52.108;19.942;2023-04-24T12:09:07;14.70;;;7.80;;
60919;SDS011;59039;52.108;19.942;2023-04-24T12:11:36;12.10;;;8.20;;
60919;SDS011;59039;52.108;19.942;2023-04-24T12:14:17;10.20;;;7.80;;
60919;SDS011;59039;52.108;19.942;2023-04-24T12:16:51;14.80;;;7.60;;
60919;SDS011;59039;52.108;19.942;2023-04-24T12:19:23;11.30;;;7.50;;
60919;SDS011;59039;52.108;19.942;2023-04-24T12:24:54;14.90;;;7.80;;
60919;SDS011;59039;52.108;19.942;2023-04-24T12:30:10;15.10;;;7.70;;
60919;SDS011;59039;52.108;19.942;2023-04-24T12:32:41;18.60;;;7.50;;
60919;SDS011;59039;52.108;19.942;2023-04-24T12:35:13;18.20;;;8.40;;
60919;SDS011;59039;52.108;19.942;2023-04-24T12:37:43;13.30;;;7.70;;
60919;SDS011;59039;52.108;19.942;2023-04-24T12:43:26;14.30;;;7.70;;
60919;SDS011;59039;52.108;19.942;2023-04-24T12:51:32;12.20;;;7.70;;
60919;SDS011;59039;52.108;19.942;2023-04-24T12:53:58;12.50;;;8.00;;
60919;SDS011;59039;52.108;19.942;2023-04-24T13:02:33;8.70;;;7.20;;
60919;SDS011;59039;52.108;19.942;2023-04-24T13:05:03;10.60;;;8.00;;
60919;SDS011;59039;52.108;19.942;2023-04-24T13:07:41;10.30;;;7.80;;
60919;SDS011;59039;52.108;19.942;2023-04-24T13:10:07;8.30;;;6.80;;
60919;SDS011;59039;52.108;19.942;2023-04-24T13:12:33;11.10;;;7.60;;
60919;SDS011;59039;52.108;19.942;2023-04-24T13:15:04;10.70;;;7.90;;
60919;SDS011;59039;52.108;19.942;2023-04-24T13:17:41;8.30;;;7.20;;
60919;SDS011;59039;52.108;19.942;2023-04-24T13:20:07;10.00;;;7.00;;
60919;SDS011;59039;52.108;19.942;2023-04-24T13:25:34;10.20;;;7.10;;
60919;SDS011;59039;52.108;19.942;2023-04-24T13:28:01;9.20;;;7.20;;
60919;SDS011;59039;52.108;19.942;2023-04-24T13:30:35;11.90;;;8.10;;
60919;SDS011;59039;52.108;19.942;2023-04-24T13:33:06;11.50;;;7.60;;
60919;SDS011;59039;52.108;19.942;2023-04-24T13:35:59;8.20;;;7.30;;
60919;SDS011;59039;52.108;19.942;2023-04-24T13:41:18;10.30;;;8.10;;
60919;SDS011;59039;52.108;19.942;2023-04-24T13:43:52;8.50;;;7.40;;
60919;SDS011;59039;52.108;19.942;2023-04-24T13:46:18;10.40;;;8.00;;
60919;SDS011;59039;52.108;19.942;2023-04-24T13:48:53;10.20;;;8.10;;
60919;SDS011;59039;52.108;19.942;2023-04-24T13:51:23;9.90;;;7.90;;
60919;SDS011;59039;52.108;19.942;2023-04-24T13:56:37;11.30;;;8.30;;
60919;SDS011;59039;52.108;19.942;2023-04-24T13:59:04;11.40;;;8.20;;
60919;SDS011;59039;52.108;19.942;2023-04-24T14:15:21;15.20;;;8.20;;
60919;SDS011;59039;52.108;19.942;2023-04-24T14:17:50;9.80;;;8.20;;
60919;SDS011;59039;52.108;19.942;2023-04-24T14:20:36;11.50;;;7.90;;
60919;SDS011;59039;52.108;19.942;2023-04-24T14:23:01;10.70;;;7.40;;
60919;SDS011;59039;52.108;19.942;2023-04-24T14:25:29;13.70;;;7.20;;
60919;SDS011;59039;52.108;19.942;2023-04-24T14:27:57;10.30;;;7.30;;
60919;SDS011;59039;52.108;19.942;2023-04-24T14:30:43;10.10;;;7.70;;
60919;SDS011;59039;52.108;19.942;2023-04-24T14:33:21;10.20;;;7.60;;
60919;SDS011;59039;52.108;19.942;2023-04-24T14:35:49;10.00;;;7.00;;
60919;SDS011;59039;52.108;19.942;2023-04-24T14:38:36;8.00;;;6.60;;
60919;SDS011;59039;52.108;19.942;2023-04-24T14:41:16;10.50;;;6.00;;
60919;SDS011;59039;52.108;19.942;2023-04-24T14:43:47;8.80;;;6.10;;
60919;SDS011;59039;52.108;19.942;2023-04-24T14:46:12;7.70;;;6.00;;
60919;SDS011;59039;52.108;19.942;2023-04-24T14:51:39;7.40;;;5.50;;
60919;SDS011;59039;52.108;19.942;2023-04-24T14:54:09;9.60;;;6.30;;
60919;SDS011;59039;52.108;19.942;2023-04-24T14:56:40;8.10;;;6.20;;
60919;SDS011;59039;52.108;19.942;2023-04-24T14:59:18;12.20;;;6.00;;
60919;SDS011;59039;52.108;19.942;2023-04-24T15:01:44;7.60;;;5.90;;
60919;SDS011;59039;52.108;19.942;2023-04-24T15:04:12;7.40;;;6.20;;
60919;SDS011;59039;52.108;19.942;2023-04-24T15:06:49;8.30;;;6.10;;
60919;SDS011;59039;52.108;19.942;2023-04-24T15:09:17;9.20;;;6.20;;
60919;SDS011;59039;52.108;19.942;2023-04-24T15:14:50;8.20;;;5.80;;
60919;SDS011;59039;52.108;19.942;2023-04-24T15:20:48;8.10;;;6.00;;
60919;SDS011;59039;52.108;19.942;2023-04-24T15:26:32;9.90;;;6.80;;
60919;SDS011;59039;52.108;19.942;2023-04-24T15:29:16;11.30;;;7.60;;
60919;SDS011;59039;52.108;19.942;2023-04-24T15:31:47;10.10;;;7.30;;
60919;SDS011;59039;52.108;19.942;2023-04-24T15:34:23;10.00;;;7.10;;
60919;SDS011;59039;52.108;19.942;2023-04-24T15:36:54;10.60;;;6.70;;
60919;SDS011;59039;52.108;19.942;2023-04-24T15:39:23;8.60;;;6.80;;
60919;SDS011;59039;52.108;19.942;2023-04-24T15:41:51;12.80;;;6.20;;
60919;SDS011;59039;52.108;19.942;2023-04-24T15:44:37;7.10;;;5.30;;
60919;SDS011;59039;52.108;19.942;2023-04-24T15:47:23;9.40;;;6.70;;
60919;SDS011;59039;52.108;19.942;2023-04-24T15:52:25;16.10;;;7.20;;
60919;SDS011;59039;52.108;19.942;2023-04-24T15:54:51;8.30;;;6.10;;
60919;SDS011;59039;52.108;19.942;2023-04-24T15:57:19;7.60;;;6.30;;
60919;SDS011;59039;52.108;19.942;2023-04-24T15:59:48;9.20;;;6.00;;
60919;SDS011;59039;52.108;19.942;2023-04-24T16:02:13;10.50;;;6.80;;
60919;SDS011;59039;52.108;19.942;2023-04-24T16:04:51;7.50;;;6.30;;
60919;SDS011;59039;52.108;19.942;2023-04-24T16:07:16;9.00;;;5.90;;
60919;SDS011;59039;52.108;19.942;2023-04-24T16:09:48;10.70;;;6.80;;
60919;SDS011;59039;52.108;19.942;2023-04-24T16:12:18;12.80;;;7.20;;
60919;SDS011;59039;52.108;19.942;2023-04-24T16:14:47;8.40;;;6.50;;
60919;SDS011;59039;52.108;19.942;2023-04-24T16:17:15;10.60;;;6.60;;
60919;SDS011;59039;52.108;19.942;2023-04-24T16:19:40;11.70;;;8.20;;
60919;SDS011;59039;52.108;19.942;2023-04-24T16:24:51;10.90;;;7.00;;
60919;SDS011;59039;52.108;19.942;2023-04-24T16:27:22;8.20;;;6.60;;
60919;SDS011;59039;52.108;19.942;2023-04-24T16:29:47;9.60;;;7.00;;
60919;SDS011;59039;52.108;19.942;2023-04-24T16:32:15;11.50;;;7.00;;
60919;SDS011;59039;52.108;19.942;2023-04-24T16:34:51;9.70;;;7.20;;
60919;SDS011;59039;52.108;19.942;2023-04-24T16:37:20;12.60;;;7.90;;
60919;SDS011;59039;52.108;19.942;2023-04-24T16:40:15;11.10;;;7.50;;
60919;SDS011;59039;52.108;19.942;2023-04-24T16:42:46;10.80;;;7.00;;
60919;SDS011;59039;52.108;19.942;2023-04-24T16:45:14;9.90;;;6.90;;
60919;SDS011;59039;52.108;19.942;2023-04-24T16:53:19;8.70;;;6.60;;
60919;SDS011;59039;52.108;19.942;2023-04-24T16:55:52;11.80;;;7.40;;
60919;SDS011;59039;52.108;19.942;2023-04-24T16:58:38;11.70;;;7.00;;
60919;SDS011;59039;52.108;19.942;2023-04-24T17:04:05;12.10;;;7.10;;
60919;SDS011;59039;52.108;19.942;2023-04-24T17:06:33;9.80;;;7.30;;
60919;SDS011;59039;52.108;19.942;2023-04-24T17:09:04;11.00;;;7.80;;
60919;SDS011;59039;52.108;19.942;2023-04-24T17:11:41;10.30;;;7.60;;
60919;SDS011;59039;52.108;19.942;2023-04-24T17:14:07;11.60;;;7.30;;
60919;SDS011;59039;52.108;19.942;2023-04-24T17:16:45;11.20;;;7.90;;
60919;SDS011;59039;52.108;19.942;2023-04-24T17:22:16;9.40;;;6.80;;
60919;SDS011;59039;52.108;19.942;2023-04-24T17:24:40;12.20;;;8.70;;
60919;SDS011;59039;52.108;19.942;2023-04-24T17:27:08;15.20;;;10.70;;
60919;SDS011;59039;52.108;19.942;2023-04-24T17:29:36;14.70;;;10.30;;
60919;SDS011;59039;52.108;19.942;2023-04-24T17:35:13;12.80;;;8.30;;
60919;SDS011;59039;52.108;19.942;2023-04-24T17:37:54;15.20;;;8.80;;
60919;SDS011;59039;52.108;19.942;2023-04-24T17:43:09;12.70;;;9.40;;
60919;SDS011;59039;52.108;19.942;2023-04-24T17:45:35;12.00;;;8.30;;
60919;SDS011;59039;52.108;19.942;2023-04-24T17:48:03;15.20;;;9.40;;
60919;SDS011;59039;52.108;19.942;2023-04-24T17:50:41;13.40;;;9.50;;
60919;SDS011;59039;52.108;19.942;2023-04-24T17:53:12;15.50;;;9.60;;
60919;SDS011;59039;52.108;19.942;2023-04-24T17:55:43;14.60;;;9.40;;
60919;SDS011;59039;52.108;19.942;2023-04-24T17:58:09;14.10;;;10.10;;
60919;SDS011;59039;52.108;19.942;2023-04-24T18:03:16;16.80;;;10.50;;
60919;SDS011;59039;52.108;19.942;2023-04-24T18:05:42;18.60;;;11.90;;
60919;SDS011;59039;52.108;19.942;2023-04-24T18:08:31;19.10;;;13.00;;
60919;SDS011;59039;52.108;19.942;2023-04-24T18:14:08;18.30;;;11.50;;
60919;SDS011;59039;52.108;19.942;2023-04-24T18:16:57;15.40;;;11.40;;
60919;SDS011;59039;52.108;19.942;2023-04-24T18:19:45;17.40;;;11.60;;
60919;SDS011;59039;52.108;19.942;2023-04-24T18:22:30;19.80;;;12.00;;
60919;SDS011;59039;52.108;19.942;2023-04-24T18:25:22;18.50;;;12.10;;
60919;SDS011;59039;52.108;19.942;2023-04-24T18:27:48;19.60;;;12.20;;
60919;SDS011;59039;52.108;19.942;2023-04-24T18:33:43;15.60;;;11.50;;
60919;SDS011;59039;52.108;19.942;2023-04-24T18:36:11;16.70;;;11.20;;
60919;SDS011;59039;52.108;19.942;2023-04-24T18:44:52;17.30;;;11.80;;
60919;SDS011;59039;52.108;19.942;2023-04-24T18:47:20;16.80;;;11.00;;
60919;SDS011;59039;52.108;19.942;2023-04-24T18:49:46;17.90;;;12.50;;
60919;SDS011;59039;52.108;19.942;2023-04-24T18:52:14;18.10;;;12.00;;
60919;SDS011;59039;52.108;19.942;2023-04-24T18:54:59;17.80;;;11.20;;
60919;SDS011;59039;52.108;19.942;2023-04-24T18:57:31;14.50;;;11.60;;
60919;SDS011;59039;52.108;19.942;2023-04-24T19:00:02;16.70;;;12.20;;
60919;SDS011;59039;52.108;19.942;2023-04-24T19:02:40;20.00;;;13.90;;
60919;SDS011;59039;52.108;19.942;2023-04-24T19:05:18;25.50;;;13.10;;
60919;SDS011;59039;52.108;19.942;2023-04-24T19:10:49;22.20;;;12.90;;
60919;SDS011;59039;52.108;19.942;2023-04-24T19:13:15;22.60;;;13.10;;
60919;SDS011;59039;52.108;19.942;2023-04-24T19:15:40;18.70;;;13.20;;
60919;SDS011;59039;52.108;19.942;2023-04-24T19:18:08;20.30;;;13.80;;
60919;SDS011;59039;52.108;19.942;2023-04-24T19:23:14;25.00;;;14.20;;
60919;SDS011;59039;52.108;19.942;2023-04-24T19:26:01;20.60;;;14.70;;
60919;SDS011;59039;52.108;19.942;2023-04-24T19:28:52;21.00;;;14.40;;
60919;SDS011;59039;52.108;19.942;2023-04-24T19:37:38;23.80;;;14.30;;
60919;SDS011;59039;52.108;19.942;2023-04-24T19:40:38;23.40;;;14.50;;
60919;SDS011;59039;52.108;19.942;2023-04-24T19:43:12;26.20;;;15.60;;
60919;SDS011;59039;52.108;19.942;2023-04-24T19:46:01;32.40;;;16.70;;
60919;SDS011;59039;52.108;19.942;2023-04-24T19:49:00;32.30;;;17.90;;
60919;SDS011;59039;52.108;19.942;2023-04-24T19:51:47;37.00;;;17.70;;
60919;SDS011;59039;52.108;19.942;2023-04-24T19:54:43;33.90;;;17.60;;
60919;SDS011;59039;52.108;19.942;2023-04-24T19:57:29;31.40;;;16.50;;
60919;SDS011;59039;52.108;19.942;2023-04-24T20:05:27;20.70;;;12.60;;
60919;SDS011;59039;52.108;19.942;2023-04-24T20:07:53;22.40;;;13.30;;
60919;SDS011;59039;52.108;19.942;2023-04-24T20:16:45;22.80;;;14.00;;
60919;SDS011;59039;52.108;19.942;2023-04-24T20:19:13;21.60;;;13.80;;
60919;SDS011;59039;52.108;19.942;2023-04-24T20:21:53;22.50;;;13.90;;
60919;SDS011;59039;52.108;19.942;2023-04-24T20:27:18;22.60;;;13.90;;
60919;SDS011;59039;52.108;19.942;2023-04-24T20:30:04;20.40;;;14.00;;
60919;SDS011;59039;52.108;19.942;2023-04-24T20:32:45;23.30;;;14.80;;
60919;SDS011;59039;52.108;19.942;2023-04-24T20:35:32;26.10;;;15.80;;
60919;SDS011;59039;52.108;19.942;2023-04-24T20:40:34;19.90;;;13.90;;
60919;SDS011;59039;52.108;19.942;2023-04-24T20:43:03;23.80;;;14.90;;
60919;SDS011;59039;52.108;19.942;2023-04-24T20:45:33;23.40;;;14.30;;
60919;SDS011;59039;52.108;19.942;2023-04-24T20:48:04;22.20;;;14.10;;
60919;SDS011;59039;52.108;19.942;2023-04-24T20:50:52;23.90;;;15.10;;
60919;SDS011;59039;52.108;19.942;2023-04-24T20:53:23;28.70;;;17.10;;
60919;SDS011;59039;52.108;19.942;2023-04-24T20:55:49;27.50;;;17.20;;
60919;SDS011;59039;52.108;19.942;2023-04-24T20:58:14;26.30;;;17.00;;
60919;SDS011;59039;52.108;19.942;2023-04-24T21:00:51;27.40;;;16.00;;
60919;SDS011;59039;52.108;19.942;2023-04-24T21:03:29;27.00;;;15.30;;
60919;SDS011;59039;52.108;19.942;2023-04-24T21:06:18;23.80;;;15.70;;
60919;SDS011;59039;52.108;19.942;2023-04-24T21:08:49;19.40;;;13.90;;
60919;SDS011;59039;52.108;19.942;2023-04-24T21:11:34;24.70;;;15.80;;
60919;SDS011;59039;52.108;19.942;2023-04-24T21:14:21;20.90;;;15.90;;
60919;SDS011;59039;52.108;19.942;2023-04-24T21:16:53;21.40;;;15.70;;
60919;SDS011;59039;52.108;19.942;2023-04-24T21:19:32;22.00;;;14.50;;
60919;SDS011;59039;52.108;19.942;2023-04-24T21:21:57;20.60;;;15.20;;
60919;SDS011;59039;52.108;19.942;2023-04-24T21:24:23;21.80;;;15.20;;